Station: PLZEN LINE, ICAO: LKLN, Synop: ,
Koordinaten: 49 41 N 013 16 E, Hoehe: 362m, Entfernung: 93.57km
2017/12/15 04:13
LKLN 150413Z AUTO 22008KT 9999 OVC014 04/01 Q0993


Station: Hohenfels, ICAO: ETIH, Synop: Synop: 10775,
Koordinaten: 4913'00''N 01150'00''E, Hoehe: 442m, Entfernung: 96.80km
2017/12/15 03:56
ETIH 150356Z AUTO 22007G19KT 9999 -RA OVC012 04/03 A2934 RMK AO2 RAB49 SLP953 P0000 T00360027 $


Station: HOHENFELS (USAF), ICAO: EDIH, Synop: Synop: 10775,
Koordinaten: 49 13 N 011 49 E, Hoehe: 442m, Entfernung: 97.91km


Station: Erding, ICAO: ETSE, Synop: Synop: 10869,
Koordinaten: 4819'00''N 01157'00''E, Hoehe: 462m, Entfernung: 100.03km
2015/01/30 08:20
ETSE 300820Z 27013G23KT 1600 SHSNGS FEW006 BKN023 01/M01 Q0979 REGS YLO


Station: GAERMERSDORF, ICAO: EDZH, Synop: ,
Koordinaten: 49 25 N 011 54 E, Hoehe: 419m, Entfernung: 103.90km


Station: Kuemmersruck, ICAO: ETGK, Synop: Synop: 10771,
Koordinaten: 4926'00''N 01154'00''E, Hoehe: 419m, Entfernung: 105.02km


mehr Wetter
WetterInfo - adds.pl 2.6.003 DL3EL © 2004-2017 [154952]